Time;durP1;ratioP1;P1;durP2;ratioP2;P2;SDS_P1;SDS_P2;PMS_P1;PMS_P2;Temp;Humidity;BMP_temperature;BMP_pressure;BME280_temperature;BME280_humidity;BME280_pressure;Samples;Min_cycle;Max_cycle;Signal;HPM_P1;HPM_P2
2021/06/24 00:00:10;;;;;;;3.00;2.70;;;17.90;99.90;;;;;;4950402;28;20192;-55
2021/06/24 00:02:36;;;;;;;5.82;3.75;;;17.70;99.90;;;;;;4953801;28;20271;-55
2021/06/24 00:05:02;;;;;;;4.13;3.77;;;17.70;99.90;;;;;;4951880;28;20216;-57
2021/06/24 00:07:27;;;;;;;3.83;3.47;;;17.70;99.90;;;;;;4953857;28;20209;-55
2021/06/24 00:09:53;;;;;;;3.80;3.50;;;17.60;99.90;;;;;;4953502;28;20180;-55
2021/06/24 00:12:21;;;;;;;4.77;3.77;;;17.50;99.90;;;;;;4949348;28;20236;-55
2021/06/24 00:14:46;;;;;;;3.55;3.17;;;17.30;99.90;;;;;;4953572;28;20188;-55
2021/06/24 00:17:12;;;;;;;4.13;3.73;;;17.40;99.90;;;;;;4953781;28;20200;-56
2021/06/24 00:19:38;;;;;;;4.00;3.70;;;17.50;99.90;;;;;;4947850;28;20192;-56
2021/06/24 00:22:03;;;;;;;4.17;3.77;;;17.50;99.90;;;;;;4955559;28;20283;-55
2021/06/24 00:24:29;;;;;;;3.50;3.20;;;17.40;99.90;;;;;;4955578;28;20188;-55
2021/06/24 00:26:55;;;;;;;3.63;3.33;;;17.60;99.90;;;;;;4954847;28;20286;-55
2021/06/24 00:29:20;;;;;;;4.63;4.23;;;17.40;99.90;;;;;;4961549;28;20192;-55
2021/06/24 00:31:46;;;;;;;3.50;3.23;;;17.70;99.90;;;;;;4948388;28;20204;-55
2021/06/24 00:34:12;;;;;;;3.50;3.20;;;17.60;99.90;;;;;;4955437;28;20267;-56
2021/06/24 00:36:37;;;;;;;3.63;3.33;;;17.70;99.90;;;;;;4950824;28;20662;-55
2021/06/24 00:39:03;;;;;;;3.93;3.57;;;17.70;99.90;;;;;;4947312;29;20204;-56
2021/06/24 00:41:30;;;;;;;5.25;3.80;;;17.90;99.90;;;;;;4951399;28;20283;-56
2021/06/24 00:43:55;;;;;;;4.40;3.95;;;17.70;99.90;;;;;;4955787;28;20687;-55
2021/06/24 00:46:21;;;;;;;3.90;3.60;;;18.00;99.90;;;;;;4942461;28;20207;-56
2021/06/24 00:48:56;;;;;;;4.73;4.10;;;17.80;99.90;;;;;;4949419;29;20204;-55
2021/06/24 00:51:21;;;;;;;4.03;3.67;;;17.70;99.90;;;;;;4969853;28;20211;-55
2021/06/24 00:53:47;;;;;;;4.73;4.33;;;17.70;99.90;;;;;;4948508;28;20173;-56
2021/06/24 00:56:25;;;;;;;4.60;4.23;;;17.70;99.90;;;;;;4944244;28;20204;-55
2021/06/24 00:58:51;;;;;;;4.50;4.10;;;17.60;99.90;;;;;;4961929;28;20275;-56
2021/06/24 01:01:17;;;;;;;4.77;4.27;;;17.50;99.90;;;;;;4949245;28;20643;-56
2021/06/24 01:03:42;;;;;;;5.00;4.60;;;17.80;99.90;;;;;;4947268;28;20183;-55
2021/06/24 01:06:08;;;;;;;5.00;4.60;;;17.90;99.90;;;;;;4950908;28;20190;-55
2021/06/24 01:08:33;;;;;;;5.17;4.77;;;18.00;99.90;;;;;;4948300;28;20206;-55
2021/06/24 01:10:59;;;;;;;5.50;5.00;;;17.90;99.90;;;;;;4953015;28;20231;-55
2021/06/24 01:13:25;;;;;;;5.13;4.73;;;17.90;99.90;;;;;;4972529;28;20688;-54
2021/06/24 01:15:52;;;;;;;5.87;5.47;;;18.00;99.90;;;;;;4948297;28;20184;-55
2021/06/24 01:18:17;;;;;;;5.65;5.15;;;17.90;99.90;;;;;;4946620;28;20299;-55
2021/06/24 01:20:43;;;;;;;4.70;4.40;;;18.00;99.90;;;;;;4950977;28;20291;-55
2021/06/24 01:23:09;;;;;;;5.57;5.07;;;18.20;99.90;;;;;;4953698;28;20191;-55
2021/06/24 01:25:35;;;;;;;5.83;5.23;;;18.10;99.90;;;;;;4944025;28;20448;-55
2021/06/24 01:28:06;;;;;;;5.40;5.00;;;18.10;99.90;;;;;;4964800;28;20215;-56
2021/06/24 01:30:32;;;;;;;5.57;5.15;;;18.00;99.90;;;;;;4951557;28;20232;-55
2021/06/24 01:32:58;;;;;;;5.97;5.45;;;18.10;99.90;;;;;;4954899;28;20179;-55
2021/06/24 01:35:26;;;;;;;5.77;5.30;;;17.90;99.90;;;;;;4947271;28;20238;-55
2021/06/24 01:37:56;;;;;;;6.25;5.78;;;18.00;99.90;;;;;;4951355;28;20306;-56
2021/06/24 01:40:22;;;;;;;5.80;5.30;;;18.00;99.90;;;;;;4963311;28;20678;-55
2021/06/24 01:42:47;;;;;;;6.03;5.53;;;18.10;99.90;;;;;;4951630;28;20184;-56
2021/06/24 01:45:13;;;;;;;4.80;4.50;;;18.10;99.90;;;;;;4947170;28;20187;-56
2021/06/24 01:47:39;;;;;;;4.70;4.40;;;18.10;99.90;;;;;;4946816;28;20218;-55
2021/06/24 01:50:09;;;;;;;4.87;4.47;;;18.10;99.90;;;;;;4947884;28;20957;-56
2021/06/24 01:52:34;;;;;;;4.70;4.25;;;18.10;99.90;;;;;;4953082;28;20217;-55
2021/06/24 01:55:00;;;;;;;4.80;4.30;;;18.10;99.90;;;;;;4945739;29;20625;-56
2021/06/24 01:57:25;;;;;;;5.17;4.10;;;18.20;99.90;;;;;;4949500;28;20653;-56
2021/06/24 01:59:51;;;;;;;4.30;3.70;;;18.20;99.90;;;;;;4953448;28;20204;-56
2021/06/24 02:02:16;;;;;;;5.20;4.80;;;18.20;99.90;;;;;;4944537;28;20188;-55
2021/06/24 02:04:44;;;;;;;5.50;5.10;;;18.20;99.90;;;;;;4947602;28;20572;-55
2021/06/24 02:07:09;;;;;;;7.63;4.80;;;18.30;99.90;;;;;;4940398;28;20555;-56
2021/06/24 02:09:35;;;;;;;5.80;5.30;;;18.00;99.90;;;;;;4941466;28;20494;-55
2021/06/24 02:12:01;;;;;;;5.33;4.93;;;17.90;99.90;;;;;;4945997;28;20197;-55
2021/06/24 02:14:28;;;;;;;5.30;4.90;;;17.90;99.90;;;;;;4950678;28;20593;-56
2021/06/24 02:16:54;;;;;;;8.10;5.45;;;18.00;99.90;;;;;;4965469;28;20616;-55
2021/06/24 02:19:20;;;;;;;6.47;5.97;;;18.00;99.90;;;;;;4960461;28;20197;-55
2021/06/24 02:21:45;;;;;;;6.17;5.67;;;17.80;99.90;;;;;;4954067;28;20254;-56
2021/06/24 02:24:11;;;;;;;4.97;4.60;;;17.80;99.90;;;;;;4966043;28;20247;-55
2021/06/24 02:26:37;;;;;;;4.43;4.10;;;17.90;99.90;;;;;;4949595;28;20634;-56
2021/06/24 02:29:03;;;;;;;5.60;4.95;;;17.80;99.90;;;;;;4949183;28;20639;-55
2021/06/24 02:31:29;;;;;;;5.80;4.50;;;17.80;99.90;;;;;;4948647;28;20283;-55
2021/06/24 02:33:55;;;;;;;5.90;5.50;;;17.90;99.90;;;;;;4948258;29;20192;-56
2021/06/24 02:36:24;;;;;;;6.43;5.55;;;17.80;99.90;;;;;;4942099;29;20455;-56
2021/06/24 02:38:49;;;;;;;6.03;5.43;;;17.50;99.90;;;;;;4944321;28;20242;-56
2021/06/24 02:41:15;;;;;;;5.07;4.67;;;17.70;99.90;;;;;;4951734;28;20188;-56
2021/06/24 02:43:40;;;;;;;5.37;4.87;;;17.60;99.90;;;;;;4950161;28;20303;-56
2021/06/24 02:46:06;;;;;;;5.77;5.27;;;17.70;99.90;;;;;;4950005;29;20318;-56
2021/06/24 02:48:32;;;;;;;6.20;5.60;;;17.40;99.90;;;;;;4943101;28;20209;-56
2021/06/24 02:50:57;;;;;;;5.40;4.90;;;17.60;99.90;;;;;;4963546;28;20199;-56
2021/06/24 02:53:23;;;;;;;4.97;4.53;;;17.20;99.90;;;;;;4952125;28;20181;-56
2021/06/24 02:55:49;;;;;;;4.93;4.53;;;17.20;99.90;;;;;;4964504;28;20187;-56
2021/06/24 02:58:15;;;;;;;4.70;4.30;;;17.20;99.90;;;;;;4950976;28;20211;-56
2021/06/24 03:00:40;;;;;;;4.40;4.00;;;17.10;99.90;;;;;;4950424;28;20188;-56
2021/06/24 03:03:06;;;;;;;5.97;5.43;;;17.20;99.90;;;;;;4957580;28;20435;-55
2021/06/24 03:05:31;;;;;;;5.53;4.87;;;17.20;99.90;;;;;;4942997;28;20246;-56
2021/06/24 03:07:57;;;;;;;5.17;4.63;;;17.10;99.90;;;;;;4943408;28;20267;-56
2021/06/24 03:10:24;;;;;;;4.63;4.30;;;17.10;99.90;;;;;;4946971;28;20223;-56
2021/06/24 03:12:51;;;;;;;5.32;4.90;;;17.10;99.90;;;;;;4952854;28;20223;-55
2021/06/24 03:15:17;;;;;;;6.18;5.57;;;17.00;99.90;;;;;;4949013;28;20668;-56
2021/06/24 03:17:43;;;;;;;5.50;5.07;;;17.10;99.90;;;;;;4945002;29;20221;-56
2021/06/24 03:20:10;;;;;;;5.03;4.72;;;17.20;99.90;;;;;;4944907;28;20436;-55
2021/06/24 03:22:36;;;;;;;5.45;5.05;;;17.00;99.90;;;;;;4953780;28;20241;-55
2021/06/24 03:25:05;;;;;;;4.97;4.57;;;17.20;99.90;;;;;;4950214;28;20180;-53
2021/06/24 03:27:31;;;;;;;4.90;4.50;;;17.30;99.90;;;;;;4965403;28;20207;-52
2021/06/24 03:29:57;;;;;;;5.73;5.20;;;17.40;99.90;;;;;;4947662;29;20200;-52
2021/06/24 03:32:22;;;;;;;7.43;4.60;;;17.30;99.90;;;;;;4949970;28;20227;-54
2021/06/24 03:34:48;;;;;;;6.33;5.10;;;17.30;99.90;;;;;;4949741;28;20668;-54
2021/06/24 03:37:13;;;;;;;6.80;5.37;;;17.40;99.90;;;;;;4947818;28;20204;-55
2021/06/24 03:39:39;;;;;;;5.73;5.33;;;17.20;99.90;;;;;;4951109;28;20187;-53
2021/06/24 03:42:05;;;;;;;5.07;4.77;;;17.20;99.90;;;;;;4948163;28;20196;-53
2021/06/24 03:44:31;;;;;;;5.73;5.33;;;17.20;99.90;;;;;;4969130;28;20196;-54
2021/06/24 03:46:56;;;;;;;6.67;5.70;;;17.20;99.90;;;;;;4942302;28;20455;-53
2021/06/24 03:49:22;;;;;;;6.00;5.40;;;17.20;99.90;;;;;;4947143;28;20199;-50
2021/06/24 03:51:48;;;;;;;6.10;4.50;;;17.20;99.90;;;;;;4950568;28;20200;-50
2021/06/24 03:54:13;;;;;;;5.13;4.70;;;17.30;99.90;;;;;;4951480;28;20180;-50
2021/06/24 03:56:40;;;;;;;5.43;4.97;;;17.30;99.90;;;;;;4950556;28;20968;-49
2021/06/24 03:59:05;;;;;;;4.97;4.43;;;17.30;99.90;;;;;;4949940;28;20177;-50
2021/06/24 04:01:31;;;;;;;5.50;5.10;;;17.40;99.90;;;;;;4968253;28;20188;-50
2021/06/24 04:03:57;;;;;;;6.10;5.50;;;17.30;99.90;;;;;;4946374;28;20272;-51
2021/06/24 04:06:22;;;;;;;5.40;5.00;;;17.40;99.90;;;;;;4949046;28;20192;-50
2021/06/24 04:08:48;;;;;;;5.80;4.90;;;17.30;99.90;;;;;;4946034;28;20965;-50
2021/06/24 04:11:14;;;;;;;6.00;5.50;;;17.60;99.90;;;;;;4949943;28;20200;-52
2021/06/24 04:13:40;;;;;;;5.22;4.68;;;17.40;99.90;;;;;;4948389;28;20352;-53
2021/06/24 04:16:06;;;;;;;5.50;5.00;;;17.50;99.90;;;;;;4968856;28;20737;-54
2021/06/24 04:18:32;;;;;;;5.13;4.73;;;17.80;99.90;;;;;;4965299;28;20430;-52
2021/06/24 04:20:58;;;;;;;6.30;5.80;;;17.60;99.90;;;;;;4949906;28;20481;-53
2021/06/24 04:23:24;;;;;;;5.63;4.77;;;17.60;99.90;;;;;;4945819;28;20278;-53
2021/06/24 04:25:49;;;;;;;5.57;5.07;;;17.80;99.90;;;;;;4950696;28;20199;-51
2021/06/24 04:28:15;;;;;;;6.57;5.40;;;17.60;99.90;;;;;;4948121;28;20682;-50
2021/06/24 04:30:41;;;;;;;5.37;4.87;;;17.50;99.90;;;;;;4946180;28;20462;-50
2021/06/24 04:33:07;;;;;;;4.73;4.33;;;17.90;99.90;;;;;;4949973;28;20697;-50
2021/06/24 04:35:33;;;;;;;4.07;3.77;;;18.00;99.90;;;;;;4945830;28;22460;-51
2021/06/24 04:37:59;;;;;;;4.20;3.90;;;18.00;99.90;;;;;;4943634;28;20239;-50
2021/06/24 04:40:25;;;;;;;4.70;3.88;;;18.00;99.90;;;;;;4942053;28;20534;-50
2021/06/24 04:42:51;;;;;;;3.60;3.30;;;17.90;99.90;;;;;;4946927;28;20765;-48
2021/06/24 04:45:16;;;;;;;5.20;4.70;;;18.10;99.90;;;;;;4947949;28;20270;-49
2021/06/24 04:47:43;;;;;;;3.80;3.47;;;18.10;99.90;;;;;;4948445;28;21001;-49
2021/06/24 04:50:09;;;;;;;3.63;3.33;;;18.20;99.90;;;;;;4949370;28;20432;-50
2021/06/24 04:52:36;;;;;;;4.10;3.80;;;18.40;99.90;;;;;;4945207;28;20243;-50
2021/06/24 04:55:04;;;;;;;3.42;3.22;;;18.60;99.90;;;;;;4946193;28;20186;-50
2021/06/24 04:57:29;;;;;;;3.90;3.60;;;18.70;99.90;;;;;;4944632;28;20606;-51
2021/06/24 04:59:55;;;;;;;3.33;3.03;;;18.80;99.90;;;;;;4949152;28;20193;-51
2021/06/24 05:02:21;;;;;;;2.77;2.57;;;18.60;99.90;;;;;;4951409;28;20273;-52
2021/06/24 05:04:46;;;;;;;3.30;3.03;;;19.00;99.90;;;;;;4950330;28;20554;-53
2021/06/24 05:07:12;;;;;;;2.87;2.67;;;18.90;99.90;;;;;;4943154;28;20562;-51
2021/06/24 05:09:41;;;;;;;3.33;3.13;;;18.80;99.90;;;;;;4948595;28;20198;-50
2021/06/24 05:12:11;;;;;;;2.80;2.60;;;18.90;99.90;;;;;;4952704;28;20563;-50
2021/06/24 05:14:38;;;;;;;2.83;2.63;;;18.90;99.90;;;;;;4943835;28;20192;-50
2021/06/24 05:17:06;;;;;;;5.00;3.40;;;19.00;99.90;;;;;;4952920;28;20291;-50
2021/06/24 05:19:34;;;;;;;3.65;3.33;;;19.30;99.90;;;;;;4946769;28;20223;-50
2021/06/24 05:22:00;;;;;;;3.30;3.00;;;19.50;99.90;;;;;;4947461;28;20185;-50
2021/06/24 05:24:26;;;;;;;3.15;2.88;;;19.70;99.90;;;;;;4955384;28;20810;-50
2021/06/24 05:26:52;;;;;;;3.00;2.80;;;19.90;99.90;;;;;;4947332;29;20320;-50
2021/06/24 05:29:18;;;;;;;3.57;3.27;;;20.00;99.90;;;;;;4941598;28;20946;-50
2021/06/24 05:31:43;;;;;;;3.73;3.30;;;20.00;99.90;;;;;;4947052;28;20223;-50
2021/06/24 05:34:09;;;;;;;2.80;2.60;;;19.90;99.90;;;;;;4942870;28;20339;-49
2021/06/24 05:36:35;;;;;;;3.27;2.97;;;19.90;99.90;;;;;;4941951;28;20192;-50
2021/06/24 05:39:04;;;;;;;3.63;3.10;;;20.00;99.90;;;;;;4945740;28;20266;-50
2021/06/24 05:41:30;;;;;;;3.05;2.85;;;19.90;99.90;;;;;;4943599;28;20191;-50
2021/06/24 05:43:57;;;;;;;3.80;3.50;;;19.80;99.90;;;;;;4952090;28;20242;-50
2021/06/24 05:46:22;;;;;;;3.53;3.28;;;19.80;99.90;;;;;;4951579;28;20442;-50
2021/06/24 05:48:51;;;;;;;3.73;3.10;;;19.90;99.90;;;;;;4947142;28;20200;-49
2021/06/24 05:51:18;;;;;;;3.70;3.40;;;19.90;99.90;;;;;;4944258;28;20196;-49
2021/06/24 05:53:43;;;;;;;6.00;4.18;;;20.00;99.90;;;;;;4942035;28;20602;-49
2021/06/24 05:56:09;;;;;;;4.23;3.83;;;20.00;99.90;;;;;;4945452;28;20191;-50
2021/06/24 05:58:35;;;;;;;4.27;3.87;;;20.10;99.90;;;;;;4946545;28;20227;-50
2021/06/24 06:01:00;;;;;;;4.57;4.17;;;20.10;99.90;;;;;;4943703;28;20254;-50
2021/06/24 06:03:27;;;;;;;4.40;4.10;;;20.00;99.90;;;;;;4948736;28;20195;-53
2021/06/24 06:05:54;;;;;;;7.55;4.55;;;20.10;99.90;;;;;;4948621;28;20454;-50
2021/06/24 06:08:20;;;;;;;4.32;4.03;;;20.30;99.90;;;;;;4955535;28;20664;-50
2021/06/24 06:10:46;;;;;;;4.25;3.95;;;20.40;99.90;;;;;;4944061;29;20284;-50
2021/06/24 06:13:12;;;;;;;4.38;3.97;;;20.50;99.90;;;;;;4948937;28;20188;-50
2021/06/24 06:15:40;;;;;;;4.45;4.05;;;20.60;99.90;;;;;;4944774;28;20207;-49
2021/06/24 06:18:15;;;;;;;3.63;3.33;;;20.60;99.90;;;;;;4949571;28;20665;-50
2021/06/24 06:20:42;;;;;;;4.50;4.20;;;20.70;99.90;;;;;;4945305;29;20196;-48
2021/06/24 06:23:07;;;;;;;4.07;3.80;;;20.40;99.90;;;;;;4949613;28;20188;-49
2021/06/24 06:25:33;;;;;;;4.00;3.70;;;20.50;99.90;;;;;;4945849;28;20215;-49
2021/06/24 06:27:59;;;;;;;5.63;4.27;;;20.40;99.90;;;;;;4945631;28;20235;-49
2021/06/24 06:30:26;;;;;;;4.57;4.10;;;20.40;99.90;;;;;;4945356;28;21048;-48
2021/06/24 06:32:52;;;;;;;5.75;5.35;;;20.50;99.90;;;;;;4949249;28;20467;-49
2021/06/24 06:35:18;;;;;;;3.50;3.20;;;20.40;99.90;;;;;;4950358;28;20188;-49
2021/06/24 06:37:43;;;;;;;3.63;3.43;;;20.70;99.90;;;;;;4962214;28;20681;-51
2021/06/24 06:40:10;;;;;;;4.43;4.03;;;20.70;99.90;;;;;;4951269;28;20268;-49
2021/06/24 06:42:35;;;;;;;4.10;3.70;;;20.60;99.90;;;;;;4951829;28;20227;-49
2021/06/24 06:45:01;;;;;;;4.63;4.23;;;20.60;99.90;;;;;;4941610;28;20215;-50
2021/06/24 06:47:26;;;;;;;5.20;4.80;;;20.60;99.90;;;;;;4964298;28;20213;-50
2021/06/24 06:49:52;;;;;;;5.90;5.40;;;20.80;99.90;;;;;;4942116;28;20535;-49
2021/06/24 06:52:18;;;;;;;5.47;4.97;;;20.90;99.90;;;;;;4943357;28;20236;-50
2021/06/24 06:54:43;;;;;;;6.00;5.50;;;20.80;99.90;;;;;;4944912;28;20184;-50
2021/06/24 06:57:09;;;;;;;7.00;4.80;;;20.60;99.90;;;;;;4947239;28;20282;-52
2021/06/24 06:59:35;;;;;;;6.57;5.93;;;20.60;99.90;;;;;;4952072;28;20368;-52
2021/06/24 07:02:01;;;;;;;4.90;4.40;;;20.50;99.90;;;;;;4947016;28;20628;-49
2021/06/24 07:04:26;;;;;;;4.30;4.00;;;20.70;99.90;;;;;;4954296;28;20443;-50
2021/06/24 07:06:52;;;;;;;4.30;4.00;;;20.80;99.90;;;;;;4954676;28;20511;-50
2021/06/24 07:09:18;;;;;;;4.23;3.93;;;20.70;99.90;;;;;;4953594;28;20191;-50
2021/06/24 07:11:44;;;;;;;4.38;4.07;;;20.70;99.90;;;;;;4952754;28;20199;-51
2021/06/24 07:14:09;;;;;;;4.43;4.03;;;20.80;99.90;;;;;;4954584;28;20611;-50
2021/06/24 07:16:35;;;;;;;7.50;7.00;;;20.90;99.90;;;;;;4953071;28;20185;-50
2021/06/24 07:19:01;;;;;;;4.63;4.23;;;21.20;99.90;;;;;;4958873;28;20218;-50
2021/06/24 07:21:26;;;;;;;3.53;3.33;;;21.30;99.90;;;;;;4960776;28;20570;-51
2021/06/24 07:23:52;;;;;;;4.60;4.20;;;21.40;99.90;;;;;;4955875;28;20479;-50
2021/06/24 07:26:18;;;;;;;3.70;3.50;;;21.50;99.90;;;;;;4957085;28;20198;-51
2021/06/24 07:28:43;;;;;;;4.17;3.37;;;21.80;99.90;;;;;;4949880;28;20211;-51
2021/06/24 07:31:09;;;;;;;4.10;3.80;;;22.40;99.90;;;;;;4952560;28;20283;-50
2021/06/24 07:33:35;;;;;;;3.97;3.77;;;22.50;99.90;;;;;;4952359;28;20184;-50
2021/06/24 07:36:01;;;;;;;4.00;3.70;;;22.00;99.90;;;;;;4953780;28;20818;-49
2021/06/24 07:38:28;;;;;;;3.50;3.30;;;21.90;99.90;;;;;;4953711;28;20215;-50
2021/06/24 07:40:54;;;;;;;6.93;6.43;;;21.80;99.90;;;;;;4953606;28;20215;-50
2021/06/24 07:43:20;;;;;;;3.20;3.00;;;22.20;99.90;;;;;;4953570;28;20677;-50
2021/06/24 07:45:47;;;;;;;3.90;3.60;;;22.90;99.90;;;;;;4935132;28;20627;-50
2021/06/24 07:48:12;;;;;;;3.37;3.13;;;23.60;99.90;;;;;;4952677;28;20554;-50
2021/06/24 07:50:38;;;;;;;3.73;3.43;;;23.50;99.90;;;;;;4951943;28;20216;-50
2021/06/24 07:53:05;;;;;;;3.20;3.00;;;23.10;99.90;;;;;;4946970;28;20577;-50
2021/06/24 07:55:33;;;;;;;3.20;3.00;;;23.10;99.90;;;;;;4957931;28;20688;-50
2021/06/24 07:58:01;;;;;;;3.30;3.00;;;23.30;99.90;;;;;;4953863;28;20846;-50
2021/06/24 08:00:26;;;;;;;3.60;3.40;;;23.10;99.90;;;;;;4956761;28;20453;-50
2021/06/24 08:02:52;;;;;;;5.27;3.20;;;23.70;99.90;;;;;;4958430;28;20443;-51
2021/06/24 08:05:18;;;;;;;3.73;3.30;;;23.90;99.90;;;;;;4953969;28;20302;-50
2021/06/24 08:07:45;;;;;;;7.80;3.23;;;24.10;99.90;;;;;;4945166;28;20243;-50
2021/06/24 08:10:12;;;;;;;2.90;2.70;;;24.50;99.30;;;;;;4944547;28;20443;-52
2021/06/24 08:12:40;;;;;;;3.60;3.30;;;25.10;97.30;;;;;;4952152;28;20987;-52
2021/06/24 08:15:07;;;;;;;5.00;3.13;;;25.90;96.20;;;;;;4943912;28;20495;-50
2021/06/24 08:17:32;;;;;;;2.90;2.70;;;27.60;94.10;;;;;;4965639;28;20668;-50
2021/06/24 08:19:58;;;;;;;3.13;2.93;;;28.90;90.00;;;;;;4952082;28;20990;-50
2021/06/24 08:22:24;;;;;;;2.87;2.53;;;29.00;87.10;;;;;;4947739;29;20188;-50
2021/06/24 08:24:49;;;;;;;2.90;2.70;;;29.40;86.10;;;;;;4953903;28;20194;-50
2021/06/24 08:27:15;;;;;;;3.50;3.30;;;29.40;84.30;;;;;;4948775;28;20554;-50
2021/06/24 08:29:41;;;;;;;3.27;3.07;;;29.30;81.80;;;;;;4953004;28;20583;-50
2021/06/24 08:32:07;;;;;;;3.20;2.87;;;29.20;83.00;;;;;;4953990;28;20227;-50
2021/06/24 08:34:33;;;;;;;3.10;2.90;;;29.20;81.00;;;;;;4947131;28;20219;-49
2021/06/24 08:36:59;;;;;;;4.40;2.83;;;30.00;80.00;;;;;;4946068;28;20803;-50
2021/06/24 08:39:25;;;;;;;2.37;2.20;;;31.80;73.90;;;;;;4950755;28;20497;-50
2021/06/24 08:41:54;;;;;;;5.40;3.63;;;31.90;70.00;;;;;;4969873;28;20466;-48
2021/06/24 08:44:19;;;;;;;2.97;2.77;;;33.30;67.20;;;;;;4945015;28;20549;-50
2021/06/24 08:46:47;;;;;;;3.20;3.00;;;32.90;64.20;;;;;;4951229;28;20477;-50
2021/06/24 08:49:15;;;;;;;2.93;2.73;;;31.30;66.40;;;;;;4952214;28;20253;-50
2021/06/24 08:51:41;;;;;;;3.23;3.00;;;31.00;69.40;;;;;;4943326;28;20478;-50
2021/06/24 08:54:06;;;;;;;2.97;2.53;;;31.10;69.20;;;;;;4965650;28;20455;-50
2021/06/24 08:56:33;;;;;;;3.60;3.40;;;29.80;70.50;;;;;;4950445;28;20205;-50
2021/06/24 08:58:59;;;;;;;3.80;3.00;;;29.30;75.20;;;;;;4966748;28;20603;-50
2021/06/24 09:01:50;;;;;;;3.90;3.10;;;27.90;78.00;;;;;;4950174;28;20542;-51
2021/06/24 09:04:25;;;;;;;5.90;3.00;;;27.40;80.70;;;;;;4944302;28;20525;-50
2021/06/24 09:06:51;;;;;;;3.20;2.90;;;27.00;83.90;;;;;;4943693;28;20518;-50
2021/06/24 09:09:25;;;;;;;4.20;3.80;;;26.00;86.80;;;;;;4937684;28;20530;-51
2021/06/24 09:12:10;;;;;;;3.17;2.97;;;25.40;90.20;;;;;;4943816;29;20562;-48
2021/06/24 09:14:45;;;;;;;3.77;3.47;;;24.70;91.80;;;;;;4945710;28;20454;-50
2021/06/24 09:17:13;;;;;;;3.30;2.77;;;24.10;93.70;;;;;;4943130;28;21064;-50
2021/06/24 09:19:42;;;;;;;3.95;3.65;;;23.80;94.60;;;;;;4945893;28;20563;-50
2021/06/24 09:22:12;;;;;;;3.33;3.10;;;23.40;95.60;;;;;;4944763;28;20228;-50
2021/06/24 09:24:47;;;;;;;4.00;3.35;;;23.10;96.60;;;;;;4948487;28;20195;-50
2021/06/24 09:27:19;;;;;;;2.70;2.50;;;22.90;97.50;;;;;;4950835;28;20260;-50
2021/06/24 09:30:08;;;;;;;2.78;2.40;;;23.00;97.50;;;;;;4946274;28;20200;-50
2021/06/24 09:32:38;;;;;;;4.65;3.00;;;23.00;97.70;;;;;;4948919;28;20224;-50
2021/06/24 09:35:19;;;;;;;3.05;2.85;;;23.00;97.70;;;;;;4951019;28;20599;-52
2021/06/24 09:38:20;;;;;;;3.78;3.15;;;23.10;97.20;;;;;;4938527;28;20789;-51
2021/06/24 09:40:52;;;;;;;3.55;3.28;;;23.10;97.70;;;;;;4891655;29;20652;-54
2021/06/24 09:43:36;;;;;;;3.60;3.10;;;23.20;97.50;;;;;;4955182;28;20199;-55
2021/06/24 09:46:18;;;;;;;2.70;2.50;;;23.60;97.00;;;;;;4950119;28;20872;-54
2021/06/24 09:48:53;;;;;;;3.33;3.10;;;24.10;96.20;;;;;;4945762;28;20471;-51
2021/06/24 09:51:27;;;;;;;3.20;3.00;;;24.60;95.20;;;;;;4946048;28;20481;-52
2021/06/24 09:54:15;;;;;;;3.30;2.87;;;25.30;93.50;;;;;;4945621;28;20431;-52
2021/06/24 09:56:45;;;;;;;2.97;2.60;;;25.70;92.50;;;;;;4945356;28;20444;-52
2021/06/24 09:59:13;;;;;;;3.10;2.90;;;26.50;91.20;;;;;;4948679;28;20447;-52
2021/06/24 10:01:44;;;;;;;3.20;3.00;;;26.90;90.70;;;;;;4951532;28;20443;-52
2021/06/24 10:04:28;;;;;;;2.80;2.60;;;28.30;86.30;;;;;;4951190;28;20449;-53
2021/06/24 10:06:55;;;;;;;3.10;2.90;;;28.80;82.60;;;;;;4942998;28;20538;-52
2021/06/24 10:09:22;;;;;;;3.10;2.90;;;28.50;82.80;;;;;;4947903;28;20461;-52
2021/06/24 10:11:49;;;;;;;3.37;3.10;;;28.50;83.80;;;;;;4939195;28;20914;-53
2021/06/24 10:14:15;;;;;;;4.83;3.00;;;28.50;84.70;;;;;;4944167;29;20495;-52
2021/06/24 10:16:43;;;;;;;3.80;3.37;;;28.60;85.20;;;;;;4942109;28;20440;-51
2021/06/24 10:19:10;;;;;;;3.73;3.27;;;29.00;83.20;;;;;;4968271;28;20455;-52
2021/06/24 10:21:38;;;;;;;5.83;3.73;;;27.60;86.50;;;;;;4949131;28;20447;-53
2021/06/24 10:24:10;;;;;;;3.63;3.27;;;27.50;87.10;;;;;;4943384;28;20445;-52
2021/06/24 10:26:41;;;;;;;3.47;3.27;;;27.00;88.60;;;;;;4952425;28;20536;-55
2021/06/24 10:29:18;;;;;;;2.07;1.97;;;26.50;88.70;;;;;;4950597;28;20458;-49
2021/06/24 10:31:45;;;;;;;2.47;2.37;;;25.90;88.20;;;;;;4944326;28;21025;-50
2021/06/24 10:34:12;;;;;;;3.00;2.80;;;25.40;90.10;;;;;;4949987;28;21012;-53
2021/06/24 10:36:39;;;;;;;3.10;2.80;;;25.30;91.40;;;;;;4943084;29;20883;-54
2021/06/24 10:39:06;;;;;;;2.97;2.77;;;25.20;92.10;;;;;;4957712;28;20898;-52
2021/06/24 10:42:09;;;;;;;2.50;2.30;;;25.40;92.10;;;;;;4946602;28;20607;-50
2021/06/24 10:44:48;;;;;;;2.50;2.30;;;26.10;89.80;;;;;;4913179;29;20439;-49
2021/06/24 10:47:13;;;;;;;2.97;2.50;;;26.10;89.30;;;;;;4959813;28;20472;-53
2021/06/24 10:49:40;;;;;;;3.80;2.50;;;25.90;89.70;;;;;;4944074;29;20444;-51
2021/06/24 10:52:24;;;;;;;2.27;2.10;;;25.60;89.30;;;;;;4951046;28;20464;-52
2021/06/24 10:54:50;;;;;;;4.23;2.63;;;25.70;90.20;;;;;;4962885;28;20432;-51
2021/06/24 10:57:35;;;;;;;2.20;2.10;;;25.60;90.10;;;;;;4948889;28;20460;-51
2021/06/24 11:00:39;;;;;;;3.37;2.10;;;25.40;90.50;;;;;;4961089;28;20220;-50
2021/06/24 11:03:10;;;;;;;3.53;2.20;;;25.50;90.90;;;;;;4939385;28;20438;-50
2021/06/24 11:05:40;;;;;;;2.30;2.07;;;26.90;88.50;;;;;;4947276;28;20436;-51
2021/06/24 11:08:19;;;;;;;2.17;1.97;;;28.10;82.00;;;;;;4951691;28;20464;-52
2021/06/24 11:11:07;;;;;;;1.87;1.77;;;28.50;77.00;;;;;;4943608;29;20491;-50
2021/06/24 11:16:05;;;;;;;1.97;1.87;;;28.30;74.90;;;;;;4965386;28;20444;-54
2021/06/24 11:18:31;;;;;;;2.30;2.10;;;28.30;76.30;;;;;;4942200;28;20781;-54
2021/06/24 11:21:01;;;;;;;1.60;1.50;;;29.50;75.30;;;;;;4943871;29;20473;-55
2021/06/24 11:23:50;;;;;;;2.70;1.63;;;30.00;70.10;;;;;;4943220;28;20600;-55
2021/06/24 11:26:27;;;;;;;1.73;1.63;;;30.20;68.60;;;;;;4943767;29;20452;-55
2021/06/24 11:28:55;;;;;;;2.33;1.90;;;30.80;66.30;;;;;;4943765;28;20470;-55
2021/06/24 11:31:49;;;;;;;2.90;1.90;;;31.00;65.40;;;;;;4946079;28;20578;-55
2021/06/24 11:34:24;;;;;;;3.00;1.70;;;30.90;65.50;;;;;;4947260;28;20768;-53
2021/06/24 11:37:11;;;;;;;1.40;1.30;;;30.70;63.50;;;;;;4951030;28;20481;-52
2021/06/24 11:39:39;;;;;;;1.60;1.50;;;30.30;64.30;;;;;;4948452;28;20442;-52
2021/06/24 11:42:13;;;;;;;2.87;1.70;;;30.70;63.90;;;;;;4945159;28;20545;-50
2021/06/24 11:44:46;;;;;;;2.30;1.60;;;30.40;64.00;;;;;;4969116;28;20510;-50
2021/06/24 11:47:16;;;;;;;2.00;1.80;;;30.30;65.90;;;;;;4947090;28;20567;-50
2021/06/24 12:03:29;;;;;;;1.80;1.70;;;28.00;72.60;;;;;;4967628;28;20982;-50
2021/06/24 12:05:56;;;;;;;2.00;1.90;;;27.60;74.30;;;;;;4972517;28;20458;-50
2021/06/24 12:08:26;;;;;;;3.23;2.00;;;27.00;75.70;;;;;;4948337;28;20278;-49
2021/06/24 12:11:10;;;;;;;2.37;2.17;;;26.30;78.30;;;;;;4943067;28;20467;-51
2021/06/24 12:13:38;;;;;;;2.50;2.30;;;26.20;80.20;;;;;;4951863;28;20540;-51
2021/06/24 12:16:04;;;;;;;3.53;2.30;;;26.00;80.40;;;;;;4947149;28;20463;-50
2021/06/24 12:18:40;;;;;;;1.70;1.60;;;25.90;80.70;;;;;;4951697;28;20476;-50
2021/06/24 12:21:07;;;;;;;2.03;1.93;;;25.80;81.30;;;;;;4966240;28;21022;-50
2021/06/24 12:23:41;;;;;;;1.70;1.60;;;25.90;81.40;;;;;;4948351;28;20474;-51
2021/06/24 12:26:07;;;;;;;1.60;1.47;;;26.10;80.70;;;;;;4947213;28;20495;-50
2021/06/24 12:28:33;;;;;;;1.50;1.40;;;26.10;77.50;;;;;;4945969;28;20475;-50
2021/06/24 12:30:59;;;;;;;1.73;1.40;;;26.30;77.60;;;;;;4948535;28;20466;-51
2021/06/24 12:33:27;;;;;;;1.40;1.30;;;26.40;78.50;;;;;;4946315;28;20438;-52
2021/06/24 12:35:53;;;;;;;1.30;1.20;;;26.50;77.30;;;;;;4947183;28;20656;-51
2021/06/24 12:38:24;;;;;;;1.30;1.20;;;26.60;73.20;;;;;;4968225;28;20499;-52
2021/06/24 12:40:51;;;;;;;1.63;1.30;;;26.50;71.60;;;;;;4963086;28;20191;-52
2021/06/24 12:43:24;;;;;;;1.10;1.00;;;26.50;73.40;;;;;;4943315;28;20451;-51
2021/06/24 12:45:58;;;;;;;1.50;1.40;;;26.40;73.40;;;;;;4953151;28;20959;-50
2021/06/24 12:48:36;;;;;;;1.47;1.37;;;26.80;73.00;;;;;;4946340;28;20466;-52
2021/06/24 12:51:07;;;;;;;1.40;1.20;;;27.00;71.40;;;;;;4948604;28;20479;-50
2021/06/24 12:53:36;;;;;;;1.27;1.17;;;27.10;71.10;;;;;;4965432;28;20504;-52
2021/06/24 12:56:05;;;;;;;1.37;1.27;;;27.10;68.90;;;;;;4945583;28;20446;-52
2021/06/24 12:58:33;;;;;;;1.23;1.13;;;26.90;69.70;;;;;;4949060;28;20458;-51
2021/06/24 13:01:13;;;;;;;1.47;1.30;;;26.80;70.70;;;;;;4941090;29;20443;-52
2021/06/24 13:03:42;;;;;;;1.40;1.30;;;26.60;71.40;;;;;;4948095;28;20829;-51
2021/06/24 13:06:09;;;;;;;1.20;1.10;;;26.50;72.40;;;;;;4949379;29;20439;-51
2021/06/24 13:08:35;;;;;;;2.30;2.10;;;26.30;74.00;;;;;;4961148;28;20537;-50